| Date | Time | Temp. (oF) | Dew Point (oF) | Rel. Hum. (%) | Press. (in.) | Wind Dir. | Wind Speed (mph) | Hourly Rainfall (in.) |
|
|---|---|---|---|---|---|---|---|---|---|
| 1 | 07/09 | 00:00 | 61 | 56 | 85 | 30.03 | NW | 0 | 0.00 |
| 2 | 07/08 | 23:00 | 63 | 55 | 76 | 30.01 | NNW | 0 | 0.00 |
| 3 | 07/08 | 22:00 | 67 | 54 | 64 | 30.01 | NNW | 0 | 0.00 |
| 4 | 07/08 | 21:00 | 71 | 53 | 54 | 29.96 | NNW | 0 | 0.00 |
| 5 | 07/08 | 20:00 | 75 | 53 | 48 | 29.93 | N | 3 | 0.00 |
| 6 | 07/08 | 19:00 | 76 | 52 | 45 | 29.92 | NNE | 5 | 0.00 |
| 7 | 07/08 | 18:00 | 77 | 56 | 49 | 29.90 | N | 3 | 0.00 |
| 8 | 07/08 | 17:00 | 76 | 54 | 47 | 29.91 | NW | 2 | 0.00 |
| 9 | 07/08 | 16:00 | 78 | 55 | 46 | 29.92 | NW | 2 | 0.00 |
| 10 | 07/08 | 15:00 | 78 | 54 | 45 | 29.92 | NW | 4 | 0.00 |
| 11 | 07/08 | 14:00 | 76 | 52 | 45 | 29.92 | N | 6 | 0.00 |
| 12 | 07/08 | 13:00 | 76 | 53 | 46 | 29.92 | NE | 11 | 0.00 |
| 13 | 07/08 | 12:00 | 73 | 54 | 52 | 29.93 | NNE | 12 | 0.00 |
| 14 | 07/08 | 11:00 | 72 | 53 | 52 | 29.91 | NNW | 3 | 0.00 |
| 15 | 07/08 | 10:00 | 70 | 53 | 57 | 29.91 | N | 6 | 0.00 |
| 16 | 07/08 | 09:00 | 68 | 54 | 63 | 29.90 | N | 4 | 0.00 |
| 17 | 07/08 | 08:00 | 64 | 54 | 71 | 29.89 | NNW | 5 | 0.00 |
| 18 | 07/08 | 07:00 | 61 | 52 | 74 | 29.88 | N | 3 | 0.00 |
| 19 | 07/08 | 06:00 | 60 | 52 | 77 | 29.86 | N | 3 | 0.00 |
| 20 | 07/08 | 05:00 | 58 | 52 | 83 | 29.84 | NW | 0 | 0.00 |
| 21 | 07/08 | 04:00 | 61 | 53 | 76 | 29.83 | WNW | 0 | 0.00 |
| 22 | 07/08 | 03:00 | 62 | 53 | 73 | 29.82 | NW | 0 | 0.00 |
| 23 | 07/08 | 02:00 | 67 | 52 | 60 | 29.82 | NNE | 0 | 0.00 |
| 24 | 07/08 | 01:00 | 66 | 55 | 69 | 29.81 | NNW | 1 | 0.00 |